Departure
Nueces County Airport
Robstown, US
cloud Weather
- Wind
- 150° / 11 kt
- Visibility
- -
- Ceiling
- CLR
- Temp / Dew
- -
- Altimeter
- 29.94 inHg
Obs: 2026-09-02T02:55:00.000Z
Raw METAR
METAR KRBO 020255Z AUTO 15011KT A2994 RMK AO2 PWINO
route Route
Departure
Robstown, US
Obs: 2026-09-02T02:55:00.000Z
METAR KRBO 020255Z AUTO 15011KT A2994 RMK AO2 PWINO
Arrival
Robstown, US
Obs: 2026-09-02T02:55:00.000Z
METAR KRBO 020255Z AUTO 15011KT A2994 RMK AO2 PWINO
| Date | Flight | Aircraft | Takeoff | Landing | Duration | Arr Δ |
|---|---|---|---|---|---|---|
| 2026-07-25 | N43321 | A530FB | Jul 25, 16:20 UTC | Jul 25, 16:50 UTC | 30m | - |
| 2026-07-25 | N43321 | A530FB | Jul 25, 14:30 UTC | Jul 25, 14:45 UTC | 15m | - |
| 2026-07-22 | N43321 | A530FB | Jul 22, 16:40 UTC | Jul 22, 17:15 UTC | 35m | - |
| 2026-07-21 | N589R | A798CE | Jul 21, 23:10 UTC | Jul 22, 00:00 UTC | 50m | - |
| 2026-07-21 | N43321 | A530FB | Jul 21, 18:05 UTC | Jul 21, 18:20 UTC | 15m | - |
| 2026-07-21 | N43321 | A530FB | Jul 21, 14:20 UTC | Jul 21, 15:00 UTC | 40m | - |
| 2026-07-21 | N43321 | A530FB | Jul 21, 00:10 UTC | Jul 21, 01:00 UTC | 50m | - |
| 2026-07-20 | N43321 | A530FB | Jul 20, 22:25 UTC | Jul 20, 23:10 UTC | 45m | - |
| 2026-07-18 | N43321 | A530FB | Jul 18, 14:05 UTC | Jul 18, 14:45 UTC | 40m | - |
| 2026-07-17 | N43321 | A530FB | Jul 17, 13:45 UTC | Jul 17, 14:04 UTC | 20m | - |
| 2026-07-16 | N43321 | A530FB | Jul 16, 18:29 UTC | Jul 16, 18:44 UTC | 15m | - |
| 2026-07-13 | N43321 | A530FB | Jul 13, 19:10 UTC | Jul 13, 19:40 UTC | 30m | - |
| 2026-07-10 | N43321 | A530FB | Jul 10, 00:25 UTC | Jul 10, 01:05 UTC | 40m | - |
| 2026-07-09 | N43321 | A530FB | Jul 9, 19:35 UTC | Jul 9, 20:05 UTC | 30m | - |
| 2026-07-07 | N43321 | A530FB | Jul 7, 15:10 UTC | Jul 7, 16:00 UTC | 50m | - |
| 2026-07-07 | N43321 | A530FB | Jul 7, 00:25 UTC | Jul 7, 01:05 UTC | 40m | - |
| 2026-07-06 | N43321 | A530FB | Jul 6, 15:35 UTC | Jul 6, 16:20 UTC | 45m | - |
| 2026-07-06 | N43321 | A530FB | Jul 6, 13:20 UTC | Jul 6, 13:55 UTC | 35m | - |
| 2026-07-04 | N43321 | A530FB | Jul 4, 20:50 UTC | Jul 4, 21:40 UTC | 50m | - |
| 2026-06-30 | N43321 | A530FB | Jun 30, 22:30 UTC | Jun 30, 23:10 UTC | 40m | - |
| 2026-06-30 | N43321 | A530FB | Jun 30, 20:05 UTC | Jun 30, 20:40 UTC | 35m | - |
| 2026-06-30 | N43321 | A530FB | Jun 30, 13:05 UTC | Jun 30, 13:55 UTC | 50m | - |
| 2026-06-29 | N43321 | A530FB | Jun 29, 16:50 UTC | Jun 29, 17:10 UTC | 20m | - |
| 2026-06-27 | N43321 | A530FB | Jun 27, 20:39 UTC | Jun 27, 21:15 UTC | 35m | - |
| 2026-06-27 | N43321 | A530FB | Jun 27, 18:35 UTC | Jun 27, 19:15 UTC | 40m | - |
| 2026-06-27 | N43321 | A530FB | Jun 27, 17:14 UTC | Jun 27, 17:34 UTC | 20m | - |
| 2026-06-25 | N734DK | A9DA3C | Jun 25, 15:04 UTC | Jun 25, 15:34 UTC | 30m | - |
| 2026-06-24 | N43321 | A530FB | Jun 24, 23:50 UTC | Jun 25, 00:14 UTC | 25m | - |
| 2026-06-24 | N43321 | A530FB | Jun 24, 22:00 UTC | Jun 24, 22:45 UTC | 45m | - |
| 2026-06-24 | N43321 | A530FB | Jun 24, 16:45 UTC | Jun 24, 17:25 UTC | 40m | - |
| 2026-06-24 | N43321 | A530FB | Jun 24, 13:05 UTC | Jun 24, 13:40 UTC | 35m | - |
| 2026-06-23 | N43321 | A530FB | Jun 23, 22:19 UTC | Jun 23, 23:05 UTC | 45m | - |
| 2026-06-22 | N43321 | A530FB | Jun 22, 18:35 UTC | Jun 22, 19:05 UTC | 30m | - |
| 2026-06-22 | N43321 | A530FB | Jun 22, 17:25 UTC | Jun 22, 17:40 UTC | 15m | - |
| 2026-06-22 | N43321 | A530FB | Jun 22, 13:29 UTC | Jun 22, 13:39 UTC | 10m | - |
| 2026-06-22 | N43321 | A530FB | Jun 22, 01:49 UTC | Jun 22, 02:00 UTC | 10m | - |
| 2026-06-20 | N43321 | A530FB | Jun 20, 18:34 UTC | Jun 20, 19:15 UTC | 40m | - |
| 2026-06-19 | N43321 | A530FB | Jun 19, 00:34 UTC | Jun 19, 00:59 UTC | 25m | - |
| 2026-06-18 | N43321 | A530FB | Jun 18, 20:30 UTC | Jun 18, 20:45 UTC | 15m | - |
| 2026-06-17 | N43321 | A530FB | Jun 17, 23:10 UTC | Jun 17, 23:50 UTC | 40m | - |
| 2026-06-13 | N43321 | A530FB | Jun 13, 17:55 UTC | Jun 13, 18:15 UTC | 20m | - |
| 2026-06-13 | N43321 | A530FB | Jun 13, 13:30 UTC | Jun 13, 14:05 UTC | 35m | - |
| 2026-06-11 | N43321 | A530FB | Jun 11, 22:30 UTC | Jun 11, 22:50 UTC | 20m | - |
| 2026-06-11 | N43321 | A530FB | Jun 11, 17:50 UTC | Jun 11, 18:40 UTC | 50m | - |
| 2026-06-04 | N219PB | A1DC38 | Jun 4, 22:50 UTC | Jun 4, 23:20 UTC | 30m | - |
| 2026-06-04 | N43321 | A530FB | Jun 4, 17:30 UTC | Jun 4, 18:00 UTC | 30m | - |
| 2026-06-04 | N43321 | A530FB | Jun 4, 14:45 UTC | Jun 4, 15:05 UTC | 20m | - |
| 2026-06-03 | N43321 | A530FB | Jun 3, 13:40 UTC | Jun 3, 14:05 UTC | 25m | - |
| 2026-06-02 | N43321 | A530FB | Jun 2, 21:10 UTC | Jun 2, 21:45 UTC | 35m | - |
| 2026-06-02 | N43321 | A530FB | Jun 2, 19:15 UTC | Jun 2, 19:55 UTC | 40m | - |